Time,TemperatureF,DewpointF,PressureIn,WindDirection,WindDirectionDegrees,WindSpeedMPH,WindSpeedGustMPH,Humidity,HourlyPrecipIn,Conditions,Clouds,dailyrainin,SoftwareType,DateUTC
2013-06-26 00:05:00,68.1,66.0,29.81,ESE,116,0.0,-999.0,92,-99.99,,,0.00,weatherlink.com 1.10,2013-06-26 04:05:00,
2013-06-26 00:20:00,68.0,66.0,29.81,ESE,116,0.0,-999.0,92,-99.99,,,0.00,weatherlink.com 1.10,2013-06-26 04:20:00,
2013-06-26 00:35:00,68.2,66.0,29.82,ESE,116,0.0,-999.0,92,-99.99,,,0.00,weatherlink.com 1.10,2013-06-26 04:35:00,
2013-06-26 00:51:00,68.6,66.0,29.83,ESE,116,0.0,-999.0,92,-99.99,,,0.00,weatherlink.com 1.10,2013-06-26 04:51:00,
2013-06-26 01:06:00,68.6,66.0,29.84,ESE,116,0.0,-999.0,92,-99.99,,,0.00,weatherlink.com 1.10,2013-06-26 05:06:00,
2013-06-26 01:21:00,69.0,67.0,29.84,ESE,116,0.0,-999.0,92,-99.99,,,0.00,weatherlink.com 1.10,2013-06-26 05:21:00,
2013-06-26 01:36:00,69.3,67.0,29.82,ESE,115,0.0,-999.0,91,-99.99,,,0.00,weatherlink.com 1.10,2013-06-26 05:36:00,
2013-06-26 01:51:00,69.0,67.0,29.81,ESE,115,0.0,-999.0,92,-99.99,,,0.00,weatherlink.com 1.10,2013-06-26 05:51:00,
2013-06-26 02:06:00,68.8,66.0,29.80,ESE,115,0.0,-999.0,92,-99.99,,,0.00,weatherlink.com 1.10,2013-06-26 06:06:00,
2013-06-26 02:21:00,68.6,67.0,29.80,ESE,115,0.0,-999.0,93,-99.99,,,0.00,weatherlink.com 1.10,2013-06-26 06:21:00,
2013-06-26 02:36:00,68.7,67.0,29.79,ESE,115,0.0,-999.0,93,-99.99,,,0.00,weatherlink.com 1.10,2013-06-26 06:36:00,
2013-06-26 02:51:00,68.8,67.0,29.80,ESE,115,0.0,-999.0,93,-99.99,,,0.00,weatherlink.com 1.10,2013-06-26 06:51:00,
2013-06-26 03:06:00,68.9,67.0,29.81,ESE,115,0.0,-999.0,93,-99.99,,,0.00,weatherlink.com 1.10,2013-06-26 07:06:00,
2013-06-26 03:21:00,69.0,67.0,29.81,ESE,115,0.0,-999.0,93,-99.99,,,0.00,weatherlink.com 1.10,2013-06-26 07:21:00,
2013-06-26 03:36:00,69.0,67.0,29.81,ESE,114,0.0,-999.0,92,-99.99,,,0.00,weatherlink.com 1.10,2013-06-26 07:36:00,
2013-06-26 03:52:00,69.0,67.0,29.80,ESE,114,0.0,-999.0,92,-99.99,,,0.00,weatherlink.com 1.10,2013-06-26 07:52:00,
2013-06-26 04:07:00,69.0,67.0,29.81,ESE,114,0.0,-999.0,92,-99.99,,,0.00,weatherlink.com 1.10,2013-06-26 08:07:00,
2013-06-26 04:22:00,68.9,67.0,29.80,East,88,0.0,-999.0,92,-99.99,,,0.00,weatherlink.com 1.10,2013-06-26 08:22:00,
2013-06-26 04:37:00,68.8,67.0,29.80,East,88,0.0,-999.0,93,-99.99,,,0.00,weatherlink.com 1.10,2013-06-26 08:37:00,
2013-06-26 04:52:00,68.7,67.0,29.80,East,88,0.0,-999.0,93,-99.99,,,0.00,weatherlink.com 1.10,2013-06-26 08:52:00,
2013-06-26 05:07:00,68.5,67.0,29.79,East,90,0.0,-999.0,93,-99.99,,,0.00,weatherlink.com 1.10,2013-06-26 09:07:00,
2013-06-26 05:22:00,68.5,67.0,29.79,East,97,0.0,-999.0,93,-99.99,,,0.00,weatherlink.com 1.10,2013-06-26 09:22:00,
2013-06-26 05:37:00,68.6,67.0,29.79,East,97,0.0,-999.0,93,-99.99,,,0.00,weatherlink.com 1.10,2013-06-26 09:37:00,
2013-06-26 05:52:00,68.6,67.0,29.79,SSW,202,0.0,-999.0,93,-99.99,,,0.00,weatherlink.com 1.10,2013-06-26 09:52:00,
2013-06-26 06:07:00,68.4,66.0,29.77,South,185,0.0,-999.0,93,-99.99,,,0.01,weatherlink.com 1.10,2013-06-26 10:07:00,
2013-06-26 06:22:00,68.1,66.0,29.77,SSE,149,0.0,-999.0,94,-99.99,,,0.01,weatherlink.com 1.10,2013-06-26 10:22:00,
2013-06-26 06:37:00,68.1,66.0,29.78,SSW,197,0.0,-999.0,94,-99.99,,,0.01,weatherlink.com 1.10,2013-06-26 10:37:00,
2013-06-26 06:52:00,67.9,66.0,29.77,SSW,207,0.0,-999.0,94,-99.99,,,0.01,weatherlink.com 1.10,2013-06-26 10:52:00,
2013-06-26 07:08:00,67.7,66.0,29.76,SSW,200,0.0,-999.0,94,-99.99,,,0.01,weatherlink.com 1.10,2013-06-26 11:08:00,
2013-06-26 07:23:00,68.0,66.0,29.76,SSW,202,0.0,-999.0,94,-99.99,,,0.02,weatherlink.com 1.10,2013-06-26 11:23:00,
2013-06-26 07:38:00,68.2,67.0,29.79,SW,217,0.0,-999.0,94,-99.99,,,0.02,weatherlink.com 1.10,2013-06-26 11:38:00,
2013-06-26 07:53:00,68.3,67.0,29.79,WSW,255,0.0,-999.0,94,-99.99,,,0.02,weatherlink.com 1.10,2013-06-26 11:53:00,
2013-06-26 08:08:00,68.3,67.0,29.80,WSW,248,0.0,-999.0,94,-99.99,,,0.02,weatherlink.com 1.10,2013-06-26 12:08:00,
2013-06-26 08:23:00,68.3,67.0,29.80,WSW,240,0.0,-999.0,94,-99.99,,,0.04,weatherlink.com 1.10,2013-06-26 12:23:00,
2013-06-26 08:38:00,67.7,66.0,29.79,WSW,243,0.0,-999.0,93,-99.99,,,0.06,weatherlink.com 1.10,2013-06-26 12:38:00,
2013-06-26 08:53:00,67.2,65.0,29.82,WSW,238,0.0,-999.0,93,-99.99,,,0.07,weatherlink.com 1.10,2013-06-26 12:53:00,
2013-06-26 09:08:00,67.1,65.0,29.84,WNW,298,0.0,-999.0,93,-99.99,,,0.09,weatherlink.com 1.10,2013-06-26 13:08:00,
2013-06-26 09:23:00,67.2,66.0,29.84,West,261,6.0,-999.0,94,-99.99,,,0.19,weatherlink.com 1.10,2013-06-26 13:23:00,
2013-06-26 09:38:00,66.9,65.0,29.84,WSW,256,0.0,-999.0,94,-99.99,,,0.32,weatherlink.com 1.10,2013-06-26 13:38:00,
2013-06-26 09:54:00,66.4,65.0,29.86,WSW,248,0.0,-999.0,94,-99.99,,,0.34,weatherlink.com 1.10,2013-06-26 13:54:00,
2013-06-26 10:09:00,65.9,64.0,29.85,WSW,248,0.0,-999.0,94,-99.99,,,0.36,weatherlink.com 1.10,2013-06-26 14:09:00,
2013-06-26 10:24:00,65.4,64.0,29.85,WSW,239,0.0,-999.0,94,-99.99,,,0.38,weatherlink.com 1.10,2013-06-26 14:24:00,
2013-06-26 10:39:00,65.7,64.0,29.81,SE,132,0.0,-999.0,94,-99.99,,,0.42,weatherlink.com 1.10,2013-06-26 14:39:00,
2013-06-26 10:54:00,65.9,64.0,29.78,ESE,111,0.0,-999.0,94,-99.99,,,0.45,weatherlink.com 1.10,2013-06-26 14:54:00,
2013-06-26 11:09:00,67.4,66.0,29.78,East,96,4.0,-999.0,94,-99.99,,,0.45,weatherlink.com 1.10,2013-06-26 15:09:00,
2013-06-26 11:24:00,68.0,67.0,29.76,ESE,110,0.0,-999.0,95,-99.99,,,0.45,weatherlink.com 1.10,2013-06-26 15:24:00,
2013-06-26 11:39:00,70.0,68.0,29.77,ESE,111,0.0,-999.0,92,-99.99,,,0.45,weatherlink.com 1.10,2013-06-26 15:39:00,
2013-06-26 11:54:00,72.5,69.0,29.77,SE,125,1.0,-999.0,87,-99.99,,,0.45,weatherlink.com 1.10,2013-06-26 15:54:00,
2013-06-26 12:09:00,72.5,68.0,29.80,SSW,192,0.0,-999.0,85,-99.99,,,0.45,weatherlink.com 1.10,2013-06-26 16:09:00,
2013-06-26 12:24:00,72.8,68.0,29.77,ESE,121,0.0,-999.0,85,-99.99,,,0.45,weatherlink.com 1.10,2013-06-26 16:24:00,
2013-06-26 12:40:00,73.7,68.0,29.77,ESE,122,0.0,-999.0,82,-99.99,,,0.45,weatherlink.com 1.10,2013-06-26 16:40:00,
2013-06-26 12:55:00,73.9,68.0,29.77,SE,136,0.0,-999.0,82,-99.99,,,0.45,weatherlink.com 1.10,2013-06-26 16:55:00,
2013-06-26 13:10:00,73.9,68.0,29.76,SSE,148,0.0,-999.0,81,-99.99,,,0.45,weatherlink.com 1.10,2013-06-26 17:10:00,
2013-06-26 13:25:00,75.0,68.0,29.75,SSE,166,0.0,-999.0,79,-99.99,,,0.45,weatherlink.com 1.10,2013-06-26 17:25:00,
2013-06-26 13:40:00,77.9,68.0,29.73,SE,127,1.0,-999.0,72,-99.99,,,0.45,weatherlink.com 1.10,2013-06-26 17:40:00,
2013-06-26 13:55:00,78.0,68.0,29.73,SE,127,0.0,-999.0,71,-99.99,,,0.45,weatherlink.com 1.10,2013-06-26 17:55:00,
2013-06-26 14:10:00,78.2,68.0,29.73,SE,130,0.0,-999.0,71,-99.99,,,0.45,weatherlink.com 1.10,2013-06-26 18:10:00,
2013-06-26 14:25:00,80.7,71.0,29.71,SE,142,0.0,-999.0,72,-99.99,,,0.45,weatherlink.com 1.10,2013-06-26 18:25:00,
2013-06-26 14:40:00,80.4,72.0,29.72,SSE,158,0.0,-999.0,75,-99.99,,,0.45,weatherlink.com 1.10,2013-06-26 18:40:00,
2013-06-26 14:55:00,82.1,73.0,29.72,SSW,197,1.0,-999.0,74,-99.99,,,0.45,weatherlink.com 1.10,2013-06-26 18:55:00,
2013-06-26 15:11:00,81.8,73.0,29.72,SW,223,0.0,-999.0,74,-99.99,,,0.45,weatherlink.com 1.10,2013-06-26 19:11:00,
2013-06-26 15:26:00,81.2,73.0,29.71,SSW,213,0.0,-999.0,77,-99.99,,,0.45,weatherlink.com 1.10,2013-06-26 19:26:00,
2013-06-26 15:41:00,82.0,73.0,29.71,South,189,0.0,-999.0,75,-99.99,,,0.45,weatherlink.com 1.10,2013-06-26 19:41:00,
2013-06-26 15:56:00,81.6,74.0,29.71,SSW,201,1.0,-999.0,77,-99.99,,,0.45,weatherlink.com 1.10,2013-06-26 19:56:00,
2013-06-26 16:11:00,77.9,68.0,29.71,WSW,245,20.0,-999.0,71,-99.99,,,0.45,weatherlink.com 1.10,2013-06-26 20:11:00,
2013-06-26 16:26:00,72.0,68.0,29.71,WNW,288,0.0,-999.0,87,-99.99,,,0.47,weatherlink.com 1.10,2013-06-26 20:26:00,
2013-06-26 16:41:00,72.9,70.0,29.70,WNW,288,0.0,-999.0,90,-99.99,,,0.47,weatherlink.com 1.10,2013-06-26 20:41:00,
2013-06-26 16:56:00,75.9,73.0,29.69,WNW,288,0.0,-999.0,89,-99.99,,,0.47,weatherlink.com 1.10,2013-06-26 20:56:00,
2013-06-26 17:11:00,77.4,73.0,29.69,WNW,288,0.0,-999.0,86,-99.99,,,0.47,weatherlink.com 1.10,2013-06-26 21:11:00,
2013-06-26 17:26:00,78.4,74.0,29.69,WNW,288,1.0,-999.0,85,-99.99,,,0.47,weatherlink.com 1.10,2013-06-26 21:26:00,
2013-06-26 17:41:00,78.9,73.0,29.70,West,264,0.0,-999.0,81,-99.99,,,0.47,weatherlink.com 1.10,2013-06-26 21:41:00,
2013-06-26 17:56:00,78.7,72.0,29.69,West,263,0.0,-999.0,81,-99.99,,,0.47,weatherlink.com 1.10,2013-06-26 21:56:00,
2013-06-26 18:12:00,78.5,72.0,29.68,West,262,0.0,-999.0,81,-99.99,,,0.47,weatherlink.com 1.10,2013-06-26 22:12:00,
2013-06-26 18:27:00,78.5,72.0,29.68,West,263,2.0,-999.0,81,-99.99,,,0.47,weatherlink.com 1.10,2013-06-26 22:27:00,
2013-06-26 18:42:00,78.4,73.0,29.68,West,263,0.0,-999.0,83,-99.99,,,0.48,weatherlink.com 1.10,2013-06-26 22:42:00,
2013-06-26 18:57:00,78.1,72.0,29.69,West,262,0.0,-999.0,82,-99.99,,,0.48,weatherlink.com 1.10,2013-06-26 22:57:00,
2013-06-26 19:12:00,77.4,71.0,29.69,West,263,0.0,-999.0,81,-99.99,,,0.48,weatherlink.com 1.10,2013-06-26 23:12:00,
2013-06-26 19:27:00,73.5,68.0,29.70,SSW,193,0.0,-999.0,84,-99.99,,,0.51,weatherlink.com 1.10,2013-06-26 23:27:00,
2013-06-26 19:42:00,70.7,67.0,29.69,SW,229,0.0,-999.0,89,-99.99,,,0.52,weatherlink.com 1.10,2013-06-26 23:42:00,
2013-06-26 19:57:00,70.0,67.0,29.69,SW,236,0.0,-999.0,90,-99.99,,,0.52,weatherlink.com 1.10,2013-06-26 23:57:00,
2013-06-26 20:12:00,69.7,67.0,29.70,SW,229,0.0,-999.0,91,-99.99,,,0.52,weatherlink.com 1.10,2013-06-27 00:12:00,
2013-06-26 20:27:00,69.7,67.0,29.68,SW,229,0.0,-999.0,91,-99.99,,,0.52,weatherlink.com 1.10,2013-06-27 00:27:00,
2013-06-26 20:42:00,69.7,67.0,29.69,SW,230,0.0,-999.0,92,-99.99,,,0.52,weatherlink.com 1.10,2013-06-27 00:42:00,
2013-06-26 20:57:00,69.7,67.0,29.68,SW,229,0.0,-999.0,92,-99.99,,,0.52,weatherlink.com 1.10,2013-06-27 00:57:00,
2013-06-26 21:12:00,69.7,68.0,29.68,SW,230,0.0,-999.0,93,-99.99,,,0.52,weatherlink.com 1.10,2013-06-27 01:12:00,
2013-06-26 21:27:00,69.7,68.0,29.68,SW,230,0.0,-999.0,93,-99.99,,,0.52,weatherlink.com 1.10,2013-06-27 01:27:00,
2013-06-26 21:43:00,69.9,68.0,29.69,SW,230,0.0,-999.0,93,-99.99,,,0.52,weatherlink.com 1.10,2013-06-27 01:43:00,
2013-06-26 21:58:00,69.9,68.0,29.69,SW,230,0.0,-999.0,93,-99.99,,,0.52,weatherlink.com 1.10,2013-06-27 01:58:00,
2013-06-26 22:14:00,69.9,68.0,29.69,SW,230,0.0,-999.0,93,-99.99,,,0.52,weatherlink.com 1.10,2013-06-27 02:14:00,
2013-06-26 22:28:00,69.8,68.0,29.69,SW,230,0.0,-999.0,93,-99.99,,,0.52,weatherlink.com 1.10,2013-06-27 02:28:00,
2013-06-26 22:43:00,69.9,68.0,29.69,SW,230,0.0,-999.0,93,-99.99,,,0.52,weatherlink.com 1.10,2013-06-27 02:43:00,
2013-06-26 22:58:00,70.0,68.0,29.70,SW,230,0.0,-999.0,94,-99.99,,,0.52,weatherlink.com 1.10,2013-06-27 02:58:00,
2013-06-26 23:13:00,69.9,68.0,29.70,SW,230,0.0,-999.0,93,-99.99,,,0.52,weatherlink.com 1.10,2013-06-27 03:13:00,
2013-06-26 23:28:00,69.9,68.0,29.70,SW,230,0.0,-999.0,93,-99.99,,,0.52,weatherlink.com 1.10,2013-06-27 03:28:00,
2013-06-26 23:43:00,69.8,68.0,29.70,SW,231,0.0,-999.0,93,-99.99,,,0.52,weatherlink.com 1.10,2013-06-27 03:43:00,
2013-06-26 23:58:00,69.8,68.0,29.70,SW,230,0.0,-999.0,94,-99.99,,,0.52,weatherlink.com 1.10,2013-06-27 03:58:00,